Estación Meteorológica Peña el Pijo (Robertgarden) [ 07/21/17 06:30:29 CEST ]

Fecha Hora Presion(HPa) Temp (°C) Humedad % Rocio (°C) Viento ( m/s) Direccion Lluvia 1Hora(mm) Lluvia 24H(mm) LLuvia Total(mm)
2017-Apr-08 01:01:52 1011.600 4.3 68 -1.1         1357.67
2017-Apr-08 02:01:49 1011.500 2.9 72 -1.6         1357.67
2017-Apr-08 03:01:50 1011.400 1.9 75 -2.1         1357.67
2017-Apr-08 04:01:48 1011.000 1.3 77 -2.3         1357.67
2017-Apr-08 05:05:39 1010.700 0.8 79 -2.5         1357.67
2017-Apr-08 06:01:48 1010.900 0.2 80 -2.8         1357.67
2017-Apr-08 07:01:39 1010.600 -0.1 80 -3.1         1357.67
2017-Apr-08 08:01:50 1011.200 -0.6 81 -3.4         1357.67
2017-Apr-08 09:01:49 1011.600 3.3 84 0.8         1357.67
2017-Apr-08 10:01:58 1011.500 9.6 64 3.1         1357.67
2017-Apr-08 11:01:46 1011.500 13.8 46 2.3         1357.67
2017-Apr-08 12:01:51 1011.500 15.7 36 0.5 1.0 SE     1357.67
2017-Apr-08 13:02:01 1011.500 18.3 31 0.9         1357.67
2017-Apr-08 14:01:43 1011.000 19.6 27 -0.1         1357.67
2017-Apr-08 15:01:52 1010.600 19.9 26 -0.4         1357.67
2017-Apr-08 16:01:56 1010.200 21.6 24 -0.1         1357.67
2017-Apr-08 17:01:53 1009.700 22.4 25 1.2 2.3 SSE     1357.67
2017-Apr-08 18:01:54 1009.800 20.2 27 0.4 2.1 S     1357.67
2017-Apr-08 19:02:07 1010.100 18.4 32 1.4         1357.67
2017-Apr-08 20:01:49 1010.600 14.9 41 1.7         1357.67
2017-Apr-08 21:01:50 1011.200 12.8 48 2.0         1357.67
2017-Apr-08 22:02:03 1012.100 10.9 56 2.4         1357.67
2017-Apr-08 23:01:52 1012.700 9.4 64 2.9         1357.67

Temperatura Máxima:22°    Temperatura Mínima:
Presión Máxima:1012.700 Hpa    Presión Mínima:1009.700 Hpa


Volver